Time,TemperatureF,DewpointF,PressureIn,WindDirection,WindDirectionDegrees,WindSpeedMPH,WindSpeedGustMPH,Humidity,HourlyPrecipIn,Conditions,Clouds,dailyrainin,SoftwareType,DateUTC
2013-03-01 00:01:00,46.0,46.0,30.46,SSW,197,14.0,28.0,99,-99.99,,,-99.99,,2013-03-01 08:01:00,
2013-03-01 00:11:00,46.0,46.0,30.46,SSW,200,15.0,35.0,99,-99.99,,,-99.99,,2013-03-01 08:11:00,
2013-03-01 00:22:00,46.0,46.0,30.46,SSW,202,16.0,29.0,99,-99.99,,,-99.99,,2013-03-01 08:22:00,
2013-03-01 00:32:00,46.0,46.0,30.46,SSW,201,18.0,32.0,99,-99.99,,,-99.99,,2013-03-01 08:32:00,
2013-03-01 00:42:00,46.0,46.0,30.46,SSW,199,15.0,36.0,99,-99.99,,,-99.99,,2013-03-01 08:42:00,
2013-03-01 00:52:00,46.0,46.0,30.46,SSW,205,16.0,25.0,99,-99.99,,,-99.99,,2013-03-01 08:52:00,
2013-03-01 01:02:00,46.0,46.0,30.47,SSW,210,18.0,31.0,99,-99.99,,,-99.99,,2013-03-01 09:02:00,
2013-03-01 01:11:00,46.0,46.0,30.46,SSW,211,18.0,31.0,99,-99.99,,,-99.99,,2013-03-01 09:11:00,
2013-03-01 01:22:00,46.0,46.0,-100.00,SSW,213,19.0,29.0,99,-99.99,,,-99.99,,2013-03-01 09:22:00,
2013-03-01 01:32:00,46.0,46.0,30.47,SSW,205,17.0,28.0,99,-99.99,,,-99.99,,2013-03-01 09:32:00,
2013-03-01 01:42:00,46.0,46.0,30.47,SSW,205,17.0,28.0,99,-99.99,,,-99.99,,2013-03-01 09:42:00,
2013-03-01 01:52:00,46.0,46.0,30.47,SSW,205,15.0,31.0,100,-99.99,,,-99.99,,2013-03-01 09:52:00,
2013-03-01 02:01:00,46.0,46.0,30.48,SSW,198,16.0,26.0,99,-99.99,,,-99.99,,2013-03-01 10:01:00,
2013-03-01 02:11:00,46.0,46.0,30.48,SSW,202,17.0,29.0,99,-99.99,,,-99.99,,2013-03-01 10:11:00,
2013-03-01 02:21:00,46.0,46.0,-100.00,SSW,206,16.0,28.0,99,-99.99,,,-99.99,,2013-03-01 10:21:00,
2013-03-01 02:32:00,46.0,46.0,30.48,SSW,208,16.0,31.0,99,-99.99,,,-99.99,,2013-03-01 10:32:00,
2013-03-01 02:42:00,46.0,46.0,30.48,SSW,200,16.0,27.0,100,-99.99,,,-99.99,,2013-03-01 10:42:00,
2013-03-01 02:52:00,46.0,46.0,30.49,SSW,195,14.0,25.0,99,-99.99,,,-99.99,,2013-03-01 10:52:00,
2013-03-01 03:01:00,46.0,46.0,30.48,South,187,12.0,25.0,99,-99.99,,,-99.99,,2013-03-01 11:01:00,
2013-03-01 03:11:00,46.0,46.0,30.48,South,183,15.0,25.0,99,-99.99,,,-99.99,,2013-03-01 11:11:00,
2013-03-01 03:22:00,46.0,46.0,30.48,South,186,17.0,30.0,100,-99.99,,,-99.99,,2013-03-01 11:22:00,
2013-03-01 03:32:00,46.0,46.0,30.48,South,190,19.0,32.0,99,-99.99,,,-99.99,,2013-03-01 11:32:00,
2013-03-01 03:41:00,46.0,46.0,30.48,South,190,19.0,32.0,99,-99.99,,,-99.99,,2013-03-01 11:41:00,
2013-03-01 03:52:00,46.0,46.0,30.48,South,188,17.0,30.0,100,-99.99,,,-99.99,,2013-03-01 11:52:00,
2013-03-01 04:01:00,46.0,46.0,30.48,South,188,17.0,30.0,100,-99.99,,,-99.99,,2013-03-01 12:01:00,
2013-03-01 04:11:00,46.0,46.0,30.47,South,189,13.0,28.0,99,-99.99,,,-99.99,,2013-03-01 12:11:00,
2013-03-01 04:21:00,46.0,46.0,30.47,South,183,17.0,29.0,100,-99.99,,,-99.99,,2013-03-01 12:21:00,
2013-03-01 04:32:00,45.0,45.0,30.46,South,191,21.0,38.0,100,-99.99,,,-99.99,,2013-03-01 12:32:00,
2013-03-01 04:42:00,46.0,46.0,30.46,South,182,19.0,30.0,100,-99.99,,,-99.99,,2013-03-01 12:42:00,
2013-03-01 04:52:00,46.0,46.0,30.46,SSW,192,22.0,41.0,99,-99.99,,,-99.99,,2013-03-01 12:52:00,
2013-03-01 05:01:00,46.0,46.0,30.46,South,187,20.0,31.0,100,-99.99,,,-99.99,,2013-03-01 13:01:00,
2013-03-01 05:11:00,46.0,46.0,30.46,South,183,18.0,31.0,100,-99.99,,,-99.99,,2013-03-01 13:11:00,
2013-03-01 05:21:00,46.0,46.0,30.46,South,189,18.0,32.0,100,-99.99,,,-99.99,,2013-03-01 13:21:00,
2013-03-01 05:32:00,45.0,45.0,30.46,South,188,24.0,38.0,100,-99.99,,,-99.99,,2013-03-01 13:32:00,
2013-03-01 05:41:00,45.0,45.0,30.46,South,188,24.0,38.0,100,-99.99,,,-99.99,,2013-03-01 13:41:00,
2013-03-01 05:51:00,45.0,45.0,30.46,South,183,23.0,36.0,100,-99.99,,,-99.99,,2013-03-01 13:51:00,
2013-03-01 06:01:00,45.0,45.0,30.46,South,187,23.0,36.0,99,-99.99,,,-99.99,,2013-03-01 14:01:00,
2013-03-01 06:11:00,45.0,45.0,30.46,South,187,23.0,35.0,99,-99.99,,,-99.99,,2013-03-01 14:11:00,
2013-03-01 06:21:00,45.0,45.0,30.47,South,186,21.0,38.0,99,-99.99,,,-99.99,,2013-03-01 14:21:00,
2013-03-01 06:32:00,45.0,45.0,30.47,South,187,21.0,31.0,100,-99.99,,,-99.99,,2013-03-01 14:32:00,
2013-03-01 06:41:00,45.0,45.0,30.47,South,187,19.0,34.0,99,-99.99,,,-99.99,,2013-03-01 14:41:00,
2013-03-01 06:52:00,45.0,45.0,30.48,South,186,16.0,30.0,99,-99.99,,,-99.99,,2013-03-01 14:52:00,
2013-03-01 07:01:00,45.0,45.0,30.48,South,187,19.0,33.0,100,-99.99,,,-99.99,,2013-03-01 15:01:00,
2013-03-01 07:11:00,45.0,45.0,-100.00,South,187,19.0,33.0,100,-99.99,,,-99.99,,2013-03-01 15:11:00,
2013-03-01 07:21:00,45.0,45.0,30.48,South,184,18.0,35.0,100,-99.99,,,-99.99,,2013-03-01 15:21:00,
2013-03-01 07:31:00,45.0,45.0,30.48,South,185,21.0,34.0,100,-99.99,,,-99.99,,2013-03-01 15:31:00,
2013-03-01 07:42:00,45.0,45.0,30.48,South,185,18.0,31.0,99,-99.99,,,-99.99,,2013-03-01 15:42:00,
2013-03-01 07:52:00,45.0,45.0,30.48,South,182,25.0,40.0,99,-99.99,,,-99.99,,2013-03-01 15:52:00,
2013-03-01 08:01:00,45.0,45.0,30.48,South,182,22.0,32.0,100,-99.99,,,-99.99,,2013-03-01 16:01:00,
2013-03-01 08:11:00,45.0,45.0,30.48,South,187,20.0,31.0,100,-99.99,,,-99.99,,2013-03-01 16:11:00,
2013-03-01 08:21:00,45.0,45.0,-100.00,South,184,14.0,24.0,100,-99.99,,,-99.99,,2013-03-01 16:21:00,
2013-03-01 08:31:00,45.0,45.0,30.49,South,185,17.0,33.0,100,-99.99,,,-99.99,,2013-03-01 16:31:00,
2013-03-01 08:41:00,45.0,45.0,30.49,South,189,20.0,32.0,99,-99.99,,,-99.99,,2013-03-01 16:41:00,
2013-03-01 08:51:00,45.0,45.0,30.49,South,187,17.0,29.0,100,-99.99,,,-99.99,,2013-03-01 16:51:00,
2013-03-01 09:01:00,45.0,45.0,30.49,South,187,17.0,29.0,100,-99.99,,,-99.99,,2013-03-01 17:01:00,
2013-03-01 09:11:00,45.0,45.0,30.49,South,181,17.0,27.0,100,-99.99,,,-99.99,,2013-03-01 17:11:00,
2013-03-01 09:21:00,45.0,45.0,30.49,South,185,16.0,28.0,100,-99.99,,,-99.99,,2013-03-01 17:21:00,
2013-03-01 09:31:00,46.0,46.0,30.50,South,190,14.0,27.0,100,-99.99,,,-99.99,,2013-03-01 17:31:00,
2013-03-01 09:41:00,46.0,46.0,30.50,South,191,14.0,23.0,99,-99.99,,,-99.99,,2013-03-01 17:41:00,
2013-03-01 09:52:00,46.0,46.0,30.50,South,188,19.0,30.0,100,-99.99,,,-99.99,,2013-03-01 17:52:00,
2013-03-01 10:01:00,46.0,46.0,30.50,South,186,16.0,28.0,100,-99.99,,,-99.99,,2013-03-01 18:01:00,
2013-03-01 10:12:00,46.0,46.0,30.50,South,186,14.0,24.0,100,-99.99,,,-99.99,,2013-03-01 18:12:00,
2013-03-01 10:22:00,46.0,46.0,30.50,South,183,14.0,23.0,100,-99.99,,,-99.99,,2013-03-01 18:22:00,
2013-03-01 10:31:00,46.0,46.0,30.50,South,191,15.0,22.0,100,-99.99,,,-99.99,,2013-03-01 18:31:00,
2013-03-01 10:41:00,46.0,46.0,30.50,South,187,13.0,24.0,100,-99.99,,,-99.99,,2013-03-01 18:41:00,
2013-03-01 10:52:00,46.0,46.0,30.50,SSW,192,12.0,24.0,100,-99.99,,,-99.99,,2013-03-01 18:52:00,
2013-03-01 11:01:00,46.0,46.0,30.50,SSW,194,13.0,22.0,99,-99.99,,,-99.99,,2013-03-01 19:01:00,
2013-03-01 11:11:00,46.0,46.0,-100.00,SSW,194,13.0,22.0,99,-99.99,,,-99.99,,2013-03-01 19:11:00,
2013-03-01 11:21:00,46.0,46.0,30.49,South,183,21.0,31.0,99,-99.99,,,-99.99,,2013-03-01 19:21:00,
2013-03-01 11:31:00,46.0,46.0,30.49,South,181,20.0,31.0,100,-99.99,,,-99.99,,2013-03-01 19:31:00,
2013-03-01 11:41:00,46.0,46.0,30.49,South,183,19.0,32.0,100,-99.99,,,-99.99,,2013-03-01 19:41:00,
2013-03-01 11:51:00,46.0,46.0,30.49,South,180,22.0,27.0,100,-99.99,,,-99.99,,2013-03-01 19:51:00,
2013-03-01 12:01:00,46.0,46.0,30.49,South,186,18.0,34.0,100,-99.99,,,-99.99,,2013-03-01 20:01:00,
2013-03-01 12:11:00,46.0,46.0,30.49,South,182,16.0,25.0,100,-99.99,,,-99.99,,2013-03-01 20:11:00,
2013-03-01 12:21:00,47.0,47.0,-100.00,South,188,18.0,27.0,100,-99.99,,,-99.99,,2013-03-01 20:21:00,
2013-03-01 12:31:00,47.0,47.0,30.49,South,182,18.0,25.0,99,-99.99,,,-99.99,,2013-03-01 20:31:00,
2013-03-01 12:41:00,47.0,47.0,30.49,South,185,22.0,28.0,100,-99.99,,,-99.99,,2013-03-01 20:41:00,
2013-03-01 12:52:00,47.0,47.0,30.48,South,187,26.0,33.0,100,-99.99,,,-99.99,,2013-03-01 20:52:00,
2013-03-01 13:01:00,47.0,47.0,30.48,South,183,24.0,33.0,100,-99.99,,,-99.99,,2013-03-01 21:01:00,
2013-03-01 13:11:00,47.0,47.0,30.48,South,183,24.0,33.0,100,-99.99,,,-99.99,,2013-03-01 21:11:00,
2013-03-01 13:21:00,47.0,47.0,30.48,South,188,20.0,31.0,100,-99.99,,,-99.99,,2013-03-01 21:21:00,
2013-03-01 13:31:00,47.0,47.0,30.46,South,186,25.0,35.0,100,-99.99,,,-99.99,,2013-03-01 21:31:00,
2013-03-01 13:41:00,47.0,47.0,30.46,South,186,25.0,35.0,100,-99.99,,,-99.99,,2013-03-01 21:41:00,
2013-03-01 13:51:00,47.0,47.0,30.47,South,186,23.0,35.0,100,-99.99,,,-99.99,,2013-03-01 21:51:00,
2013-03-01 14:01:00,47.0,47.0,30.46,South,185,23.0,35.0,100,-99.99,,,-99.99,,2013-03-01 22:01:00,
2013-03-01 14:11:00,47.0,47.0,30.46,South,185,23.0,35.0,100,-99.99,,,-99.99,,2013-03-01 22:11:00,
2013-03-01 14:21:00,47.0,47.0,30.46,South,187,23.0,30.0,100,-99.99,,,-99.99,,2013-03-01 22:21:00,
2013-03-01 14:31:00,47.0,47.0,30.45,South,186,24.0,33.0,100,-99.99,,,-99.99,,2013-03-01 22:31:00,
2013-03-01 14:41:00,47.0,47.0,30.45,South,183,22.0,31.0,100,-99.99,,,-99.99,,2013-03-01 22:41:00,
2013-03-01 14:51:00,47.0,47.0,30.45,South,186,24.0,32.0,100,-99.99,,,-99.99,,2013-03-01 22:51:00,
2013-03-01 15:01:00,47.0,47.0,30.44,South,185,24.0,33.0,100,-99.99,,,-99.99,,2013-03-01 23:01:00,
2013-03-01 15:11:00,47.0,47.0,30.44,South,185,24.0,33.0,100,-99.99,,,-99.99,,2013-03-01 23:11:00,
2013-03-01 15:21:00,47.0,47.0,30.44,South,187,24.0,32.0,100,-99.99,,,-99.99,,2013-03-01 23:21:00,
2013-03-01 15:31:00,47.0,47.0,30.45,South,179,18.0,29.0,100,-99.99,,,-99.99,,2013-03-01 23:31:00,
2013-03-01 15:41:00,47.0,47.0,-100.00,South,179,18.0,29.0,100,-99.99,,,-99.99,,2013-03-01 23:41:00,
2013-03-01 15:52:00,47.0,47.0,30.45,South,188,20.0,30.0,100,-99.99,,,-99.99,,2013-03-01 23:52:00,
2013-03-01 16:01:00,47.0,47.0,30.45,South,190,17.0,29.0,100,-99.99,,,-99.99,,2013-03-02 00:01:00,
2013-03-01 16:11:00,47.0,47.0,30.45,South,187,21.0,32.0,100,-99.99,,,-99.99,,2013-03-02 00:11:00,
2013-03-01 16:21:00,47.0,47.0,30.45,South,188,20.0,29.0,100,-99.99,,,-99.99,,2013-03-02 00:21:00,
2013-03-01 16:31:00,47.0,47.0,30.44,South,186,23.0,32.0,100,-99.99,,,-99.99,,2013-03-02 00:31:00,
2013-03-01 16:42:00,47.0,47.0,30.44,South,185,21.0,31.0,100,-99.99,,,-99.99,,2013-03-02 00:42:00,
2013-03-01 16:52:00,47.0,47.0,30.45,South,185,24.0,32.0,100,-99.99,,,-99.99,,2013-03-02 00:52:00,
2013-03-01 17:01:00,47.0,47.0,30.44,South,184,19.0,28.0,100,-99.99,,,-99.99,,2013-03-02 01:01:00,
2013-03-01 17:11:00,47.0,47.0,30.44,South,186,16.0,25.0,100,-99.99,,,-99.99,,2013-03-02 01:11:00,
2013-03-01 17:21:00,47.0,47.0,-100.00,South,185,14.0,20.0,100,-99.99,,,-99.99,,2013-03-02 01:21:00,
2013-03-01 17:31:00,48.0,48.0,30.44,South,191,11.0,18.0,100,-99.99,,,-99.99,,2013-03-02 01:31:00,
2013-03-01 17:41:00,47.0,47.0,30.44,South,184,9.0,18.0,100,-99.99,,,-99.99,,2013-03-02 01:41:00,
2013-03-01 17:51:00,47.0,47.0,30.44,SSW,207,11.0,20.0,100,-99.99,,,-99.99,,2013-03-02 01:51:00,
2013-03-01 18:01:00,47.0,47.0,30.44,SSW,196,12.0,23.0,100,-99.99,,,-99.99,,2013-03-02 02:01:00,
2013-03-01 18:11:00,47.0,47.0,30.44,SSW,200,14.0,24.0,100,-99.99,,,-99.99,,2013-03-02 02:11:00,
2013-03-01 18:21:00,47.0,47.0,30.44,SSW,198,14.0,23.0,100,-99.99,,,-99.99,,2013-03-02 02:21:00,
2013-03-01 18:31:00,47.0,47.0,30.43,South,188,14.0,26.0,100,-99.99,,,-99.99,,2013-03-02 02:31:00,
2013-03-01 18:41:00,47.0,47.0,30.43,South,189,14.0,25.0,100,-99.99,,,-99.99,,2013-03-02 02:41:00,
2013-03-01 18:52:00,47.0,47.0,30.43,SSW,195,13.0,22.0,100,-99.99,,,-99.99,,2013-03-02 02:52:00,
2013-03-01 19:01:00,47.0,47.0,30.43,SSW,204,13.0,21.0,100,-99.99,,,-99.99,,2013-03-02 03:01:00,
2013-03-01 19:11:00,47.0,47.0,30.43,SSW,204,13.0,21.0,100,-99.99,,,-99.99,,2013-03-02 03:11:00,
2013-03-01 19:21:00,47.0,47.0,30.42,SSW,205,13.0,22.0,100,-99.99,,,-99.99,,2013-03-02 03:21:00,
2013-03-01 19:32:00,47.0,47.0,30.43,SSW,212,14.0,21.0,100,-99.99,,,-99.99,,2013-03-02 03:32:00,
2013-03-01 19:41:00,46.0,46.0,30.43,SSW,212,17.0,24.0,100,-99.99,,,-99.99,,2013-03-02 03:41:00,
2013-03-01 19:52:00,46.0,46.0,30.43,SSW,199,13.0,27.0,100,-99.99,,,-99.99,,2013-03-02 03:52:00,
2013-03-01 20:01:00,46.0,46.0,30.43,SSW,201,16.0,25.0,100,-99.99,,,-99.99,,2013-03-02 04:01:00,
2013-03-01 20:11:00,46.0,46.0,30.43,SSW,207,12.0,20.0,100,-99.99,,,-99.99,,2013-03-02 04:11:00,
2013-03-01 20:21:00,46.0,46.0,30.43,South,191,12.0,22.0,100,-99.99,,,-99.99,,2013-03-02 04:21:00,
2013-03-01 20:31:00,46.0,46.0,30.43,SSW,192,13.0,23.0,100,-99.99,,,-99.99,,2013-03-02 04:31:00,
2013-03-01 20:41:00,46.0,46.0,30.42,South,191,13.0,23.0,100,-99.99,,,-99.99,,2013-03-02 04:41:00,
2013-03-01 20:52:00,46.0,46.0,30.42,South,188,15.0,25.0,100,-99.99,,,-99.99,,2013-03-02 04:52:00,
2013-03-01 21:01:00,46.0,46.0,30.42,South,188,15.0,25.0,100,-99.99,,,-99.99,,2013-03-02 05:01:00,
2013-03-01 21:12:00,47.0,47.0,30.42,South,186,16.0,24.0,100,-99.99,,,-99.99,,2013-03-02 05:12:00,
2013-03-01 21:22:00,46.0,46.0,30.42,South,185,16.0,24.0,100,-99.99,,,-99.99,,2013-03-02 05:22:00,
2013-03-01 21:31:00,46.0,46.0,30.42,South,187,13.0,19.0,100,-99.99,,,-99.99,,2013-03-02 05:31:00,
2013-03-01 21:41:00,46.0,46.0,-100.00,South,187,13.0,19.0,100,-99.99,,,-99.99,,2013-03-02 05:41:00,
2013-03-01 21:52:00,46.0,46.0,30.42,South,189,15.0,19.0,100,-99.99,,,-99.99,,2013-03-02 05:52:00,
2013-03-01 22:01:00,46.0,46.0,30.42,South,189,14.0,19.0,100,-99.99,,,-99.99,,2013-03-02 06:01:00,
2013-03-01 22:11:00,47.0,47.0,30.42,SSW,192,13.0,16.0,100,-99.99,,,-99.99,,2013-03-02 06:11:00,
2013-03-01 22:21:00,46.0,46.0,30.42,South,191,13.0,16.0,100,-99.99,,,-99.99,,2013-03-02 06:21:00,
2013-03-01 22:31:00,46.0,46.0,30.42,South,190,13.0,18.0,100,-99.99,,,-99.99,,2013-03-02 06:31:00,
2013-03-01 22:41:00,46.0,46.0,30.41,South,185,11.0,13.0,100,-99.99,,,-99.99,,2013-03-02 06:41:00,
2013-03-01 22:51:00,46.0,46.0,30.41,South,180,10.0,12.0,100,-99.99,,,-99.99,,2013-03-02 06:51:00,
2013-03-01 23:01:00,46.0,46.0,30.41,South,175,7.0,9.0,100,-99.99,,,-99.99,,2013-03-02 07:01:00,
2013-03-01 23:11:00,47.0,47.0,30.41,South,173,10.0,13.0,100,-99.99,,,-99.99,,2013-03-02 07:11:00,
2013-03-01 23:21:00,46.0,46.0,30.41,South,174,9.0,12.0,100,-99.99,,,-99.99,,2013-03-02 07:21:00,
2013-03-01 23:32:00,47.0,47.0,30.41,South,171,7.0,8.0,100,-99.99,,,-99.99,,2013-03-02 07:32:00,
2013-03-01 23:42:00,47.0,47.0,30.41,South,171,7.0,8.0,100,-99.99,,,-99.99,,2013-03-02 07:42:00,
2013-03-01 23:51:00,46.0,46.0,30.40,SW,221,7.0,9.0,100,-99.99,,,-99.99,,2013-03-02 07:51:00,